createdAt,value
2018-09-13T00:02:00.947Z,3.3
2018-09-13T00:07:55.941Z,3.19
2018-09-13T00:13:50.893Z,3.53
2018-09-13T00:19:45.911Z,3.17
2018-09-13T00:25:41.090Z,3.37
2018-09-13T00:31:35.935Z,3.64
2018-09-13T00:37:30.910Z,2.96
2018-09-13T00:43:25.941Z,3.04
2018-09-13T00:49:20.973Z,2.93
2018-09-13T00:55:15.931Z,3.45
2018-09-13T01:01:10.937Z,3.12
2018-09-13T01:07:05.927Z,2.74
2018-09-13T01:13:00.910Z,3.28
2018-09-13T01:18:55.902Z,3.39
2018-09-13T01:24:50.921Z,3.93
2018-09-13T01:30:45.917Z,4.19
2018-09-13T01:36:40.961Z,3.64
2018-09-13T01:42:35.980Z,3.19
2018-09-13T01:48:30.934Z,3.49
2018-09-13T01:54:25.925Z,3.43
2018-09-13T02:00:20.985Z,3.67
2018-09-13T02:06:15.960Z,3.53
2018-09-13T02:12:10.961Z,3.31
2018-09-13T02:18:05.948Z,3.45
2018-09-13T02:24:00.934Z,3.47
2018-09-13T02:29:55.962Z,3.68
2018-09-13T02:35:50.983Z,2.95
2018-09-13T02:41:46.002Z,3.08
2018-09-13T02:47:40.945Z,3.59
2018-09-13T02:53:35.985Z,3.27
2018-09-13T02:59:30.946Z,3.75
2018-09-13T03:05:25.945Z,3.13
2018-09-13T03:11:20.986Z,3.74
2018-09-13T03:17:16.025Z,3.37
2018-09-13T03:23:10.974Z,3.25
2018-09-13T03:29:05.979Z,3.39
2018-09-13T03:35:00.954Z,3.54
2018-09-13T03:40:55.963Z,3.9
2018-09-13T03:46:50.994Z,3.1
2018-09-13T03:52:45.975Z,4.48
2018-09-13T03:58:41.026Z,3.49
2018-09-13T04:04:35.971Z,3.62
2018-09-13T04:10:30.992Z,3.48
2018-09-13T04:16:25.980Z,3.66
2018-09-13T04:22:20.980Z,3.49
2018-09-13T04:28:15.958Z,3.44
2018-09-13T04:34:11.018Z,3.94
2018-09-13T04:40:05.980Z,3.8
2018-09-13T04:46:01.017Z,3.87
2018-09-13T04:51:55.996Z,4.18
2018-09-13T04:57:50.996Z,4
2018-09-13T05:03:45.978Z,4.31
2018-09-13T05:09:40.987Z,4.78
2018-09-13T05:15:35.999Z,4.62
2018-09-13T05:21:31.037Z,4.04
2018-09-13T05:27:25.991Z,7.4
2018-09-13T05:33:20.994Z,4.12
2018-09-13T05:39:15.978Z,4.14
2018-09-13T05:45:10.976Z,3.88
2018-09-13T05:51:06.081Z,4.87
2018-09-13T05:57:00.984Z,6.04
2018-09-13T06:02:55.965Z,4.54
2018-09-13T06:08:51.000Z,5.64
2018-09-13T06:14:45.973Z,6.27
2018-09-13T06:20:40.996Z,5.96
2018-09-13T06:26:35.979Z,6.21
2018-09-13T06:32:30.997Z,5.95
2018-09-13T06:38:26.052Z,6.02
2018-09-13T06:44:20.997Z,4.91
2018-09-13T06:50:15.995Z,5.36
2018-09-13T06:56:10.992Z,5.11
2018-09-13T07:02:06.074Z,4.75
2018-09-13T07:08:00.993Z,4.86
2018-09-13T07:13:56.083Z,5.04
2018-09-13T07:19:51.015Z,4.96
2018-09-13T07:25:46.043Z,4.54
2018-09-13T07:31:41.070Z,4.89
2018-09-13T07:37:36.040Z,5.01
2018-09-13T07:43:31.052Z,4.68
2018-09-13T07:49:26.138Z,5.32
2018-09-13T07:55:21.034Z,4.54
2018-09-13T08:01:16.025Z,4.92
2018-09-13T08:07:11.052Z,4.73
2018-09-13T08:13:06.009Z,4.06
2018-09-13T08:19:01.017Z,4.31
2018-09-13T08:24:56.117Z,4.58
2018-09-13T08:30:51.001Z,4.9
2018-09-13T08:36:46.051Z,5.64
2018-09-13T08:42:41.054Z,5.65
2018-09-13T08:48:36.027Z,5.71
2018-09-13T08:54:31.032Z,5.33
2018-09-13T09:00:26.035Z,5.77
2018-09-13T09:06:21.061Z,5.26
2018-09-13T09:12:16.050Z,5.63
2018-09-13T09:18:11.164Z,5.02
2018-09-13T09:24:06.132Z,5.37
2018-09-13T09:30:01.056Z,5.32
2018-09-13T09:35:56.060Z,5.68
2018-09-13T09:41:51.069Z,4.96
2018-09-13T09:47:46.052Z,5.37
2018-09-13T09:53:41.080Z,5.4
2018-09-13T09:59:36.078Z,5.38
2018-09-13T10:05:31.070Z,5.37
2018-09-13T10:11:26.063Z,5.63
2018-09-13T10:17:21.118Z,5.22
2018-09-13T10:23:16.147Z,5.68
2018-09-13T10:29:11.187Z,5.55
2018-09-13T10:35:06.063Z,4.65
2018-09-13T10:41:01.092Z,5.24
2018-09-13T10:46:56.088Z,5.25
2018-09-13T10:52:51.122Z,4.55
2018-09-13T10:58:46.111Z,4.37
2018-09-13T11:04:41.073Z,4.5
2018-09-13T11:10:36.186Z,4.72
2018-09-13T11:16:31.158Z,5.13
2018-09-13T11:22:26.104Z,5.05
2018-09-13T11:28:21.100Z,4.92
2018-09-13T11:34:16.098Z,5.36
2018-09-13T11:40:11.161Z,4.7
2018-09-13T11:46:06.096Z,4.89
2018-09-13T11:52:01.136Z,4.52
2018-09-13T11:57:56.145Z,4.73
2018-09-13T12:03:51.109Z,4.19
2018-09-13T12:09:46.086Z,4.37
2018-09-13T12:15:41.166Z,5.79
2018-09-13T12:21:36.109Z,4.46
2018-09-13T12:27:31.228Z,5.37
2018-09-13T12:33:26.148Z,5.17
2018-09-13T12:39:21.136Z,4.59
2018-09-13T12:45:16.121Z,5.76
2018-09-13T12:51:11.134Z,5.3
2018-09-13T12:57:06.146Z,5.99
2018-09-13T13:03:01.128Z,5.6
2018-09-13T13:08:56.218Z,5
2018-09-13T13:14:51.117Z,5.17
2018-09-13T13:20:46.167Z,5.41
2018-09-13T13:26:41.158Z,5.45
2018-09-13T13:32:36.148Z,5.67
2018-09-13T13:38:31.166Z,5.21
2018-09-13T13:44:26.134Z,5.2
2018-09-13T13:50:21.189Z,4.13
2018-09-13T13:56:16.205Z,4.24
2018-09-13T14:02:11.152Z,4.68
2018-09-13T14:08:06.220Z,4.37
2018-09-13T14:14:01.165Z,4.47
2018-09-13T14:19:56.158Z,4.63
2018-09-13T14:25:51.162Z,4.97
2018-09-13T14:31:46.160Z,4.46
2018-09-13T14:37:41.153Z,4.22
2018-09-13T14:43:36.221Z,4.08
2018-09-13T14:49:31.231Z,4.21
2018-09-13T14:55:26.207Z,4.74
2018-09-13T15:01:21.208Z,4.38
2018-09-13T15:07:16.286Z,4.49
2018-09-13T15:13:11.178Z,4.29
2018-09-13T15:19:06.195Z,4.83
2018-09-13T15:25:01.183Z,4.15
2018-09-13T15:30:56.222Z,4.81
2018-09-13T15:36:51.235Z,5
2018-09-13T15:42:46.212Z,5.67
2018-09-13T15:48:41.229Z,4.68
2018-09-13T15:54:36.199Z,4.41
2018-09-13T16:00:31.185Z,4.8
2018-09-13T16:06:26.202Z,4.31
2018-09-13T16:12:21.271Z,4.97
2018-09-13T16:18:16.211Z,5.31
2018-09-13T16:24:11.205Z,5.01
2018-09-13T16:30:06.221Z,5.03
2018-09-13T16:36:01.205Z,4.93
2018-09-13T16:41:56.239Z,6.2
2018-09-13T16:47:51.343Z,5.3
2018-09-13T16:53:46.262Z,4.63
2018-09-13T16:59:41.239Z,5.79
2018-09-13T17:05:36.288Z,5.41
2018-09-13T17:11:31.227Z,4.72
2018-09-13T17:17:26.226Z,5.59
2018-09-13T17:23:21.235Z,5.31
2018-09-13T17:29:16.230Z,5.2
2018-09-13T17:35:11.237Z,6.07
2018-09-13T17:41:06.220Z,5.03
2018-09-13T17:47:01.246Z,5.02
2018-09-13T17:52:56.243Z,5.14
2018-09-13T17:58:51.350Z,5.39
2018-09-13T18:04:46.287Z,5.35
2018-09-13T18:10:41.263Z,5.51
2018-09-13T18:16:36.280Z,4.92
2018-09-13T18:22:31.258Z,5.4
2018-09-13T18:28:26.304Z,5.49
2018-09-13T18:34:21.288Z,5.96
2018-09-13T18:40:16.285Z,5.5
2018-09-13T18:46:11.289Z,5.55
2018-09-13T18:52:06.288Z,5.18
2018-09-13T18:58:01.269Z,4.93
2018-09-13T19:03:56.258Z,5.26
2018-09-13T19:09:51.284Z,5.32
2018-09-13T19:15:46.301Z,6.17
2018-09-13T19:21:41.287Z,5.21
2018-09-13T19:27:36.301Z,5.77
2018-09-13T19:33:31.269Z,6.31
2018-09-13T19:39:26.319Z,5.87
2018-09-13T19:45:21.322Z,6.09
2018-09-13T19:51:16.336Z,5.73
2018-09-13T19:57:11.279Z,5.68
2018-09-13T20:03:06.332Z,5.41
2018-09-13T20:09:01.294Z,5.28
2018-09-13T20:14:56.300Z,5.8
2018-09-13T20:20:51.327Z,5.25
2018-09-13T20:26:46.301Z,4.99
2018-09-13T20:32:41.303Z,5.62
2018-09-13T20:38:36.291Z,5.12
2018-09-13T20:44:31.297Z,5.18
2018-09-13T20:50:26.298Z,5.31
2018-09-13T20:56:21.295Z,4.76
2018-09-13T21:02:16.316Z,5.82
2018-09-13T21:08:11.309Z,5.03
2018-09-13T21:14:06.314Z,4.99
2018-09-13T21:20:01.337Z,5.34
2018-09-13T21:25:56.354Z,5.67
2018-09-13T21:31:51.302Z,5.46
2018-09-13T21:37:46.385Z,5.4
2018-09-13T21:43:41.321Z,5.42
2018-09-13T21:49:36.339Z,4.76
2018-09-13T21:55:31.312Z,5.16
2018-09-13T22:01:26.349Z,5.15
2018-09-13T22:07:21.313Z,4.46
2018-09-13T22:13:16.336Z,4.58
2018-09-13T22:19:11.397Z,5.11
2018-09-13T22:25:06.330Z,4.35
2018-09-13T22:31:01.356Z,5.19
2018-09-13T22:36:56.337Z,4.87
2018-09-13T22:42:51.314Z,4.87
2018-09-13T22:48:46.440Z,4.26
2018-09-13T22:54:41.332Z,4.3
2018-09-13T23:00:36.335Z,4.97
2018-09-13T23:06:31.362Z,4.63
2018-09-13T23:12:26.403Z,4.94
2018-09-13T23:18:21.398Z,4.42
2018-09-13T23:24:16.352Z,5
2018-09-13T23:30:11.337Z,4.95
2018-09-13T23:36:06.452Z,5.04
2018-09-13T23:42:01.372Z,4.83
2018-09-13T23:47:56.372Z,5.29
2018-09-13T23:53:51.408Z,5.06
2018-09-13T23:59:46.362Z,6.06
